Terminal Aerodrome Forecast
Issued by NWS Charleston, WV

Home | Current Version | Previous Version | Text Only | Print | Product List | Glossary On
Versions: 1 2 3 4 5 6 7 8 9 10 11 12 13 14 15 16 17 18 19 20 21 22 23 24 25 26 27 28 29 30 31 32 33 34 35 36 37 38 39 40 41 42 43 44 45 46 47
000
FTUS41 KRLX 240837 AAA
TAFBKW
TAF AMD
KBKW 240837Z 2409/2506 VRB04KT P6SM BKN060
     FM241400 23007KT P6SM SCT100
     FM241700 23008G14KT P6SM SCT120
     FM250000 24009G20KT P6SM SHRA VCTS BKN040CB=

USA.gov is the U.S. government's official web portal to all federal, state and local government web resources and services.